sensor_id;sensor_type;location;lat;lon;timestamp;P1;durP1;ratioP1;P2;durP2;ratioP2
1545;SDS011;766;51.502;9.752;2024-02-14T00:00:35;5.50;;;2.58;;
1545;SDS011;766;51.502;9.752;2024-02-14T00:03:08;4.38;;;2.45;;
1545;SDS011;766;51.502;9.752;2024-02-14T00:05:37;5.63;;;3.00;;
1545;SDS011;766;51.502;9.752;2024-02-14T00:08:07;7.20;;;2.95;;
1545;SDS011;766;51.502;9.752;2024-02-14T00:10:35;8.23;;;2.95;;
1545;SDS011;766;51.502;9.752;2024-02-14T00:13:03;8.50;;;3.20;;
1545;SDS011;766;51.502;9.752;2024-02-14T00:15:32;5.55;;;2.80;;
1545;SDS011;766;51.502;9.752;2024-02-14T00:18:00;4.82;;;2.72;;
1545;SDS011;766;51.502;9.752;2024-02-14T00:20:29;9.95;;;3.20;;
1545;SDS011;766;51.502;9.752;2024-02-14T00:22:58;7.22;;;3.10;;
1545;SDS011;766;51.502;9.752;2024-02-14T00:25:31;7.13;;;3.10;;
1545;SDS011;766;51.502;9.752;2024-02-14T00:27:59;6.75;;;3.03;;
1545;SDS011;766;51.502;9.752;2024-02-14T00:30:27;5.60;;;3.00;;
1545;SDS011;766;51.502;9.752;2024-02-14T00:32:56;4.93;;;2.58;;
1545;SDS011;766;51.502;9.752;2024-02-14T00:35:25;7.28;;;2.80;;
1545;SDS011;766;51.502;9.752;2024-02-14T00:37:54;8.55;;;2.65;;
1545;SDS011;766;51.502;9.752;2024-02-14T00:40:23;8.48;;;2.85;;
1545;SDS011;766;51.502;9.752;2024-02-14T00:42:51;8.00;;;2.55;;
1545;SDS011;766;51.502;9.752;2024-02-14T00:45:19;6.13;;;3.05;;
1545;SDS011;766;51.502;9.752;2024-02-14T00:47:47;6.10;;;2.40;;
1545;SDS011;766;51.502;9.752;2024-02-14T00:50:15;5.85;;;2.75;;
1545;SDS011;766;51.502;9.752;2024-02-14T00:52:44;4.88;;;2.50;;
1545;SDS011;766;51.502;9.752;2024-02-14T00:55:13;7.18;;;2.35;;
1545;SDS011;766;51.502;9.752;2024-02-14T00:57:43;7.95;;;2.33;;
1545;SDS011;766;51.502;9.752;2024-02-14T01:00:12;3.90;;;2.30;;
1545;SDS011;766;51.502;9.752;2024-02-14T01:02:44;5.25;;;2.30;;
1545;SDS011;766;51.502;9.752;2024-02-14T01:05:12;4.72;;;2.03;;
1545;SDS011;766;51.502;9.752;2024-02-14T01:07:41;5.35;;;2.17;;
1545;SDS011;766;51.502;9.752;2024-02-14T01:10:09;3.63;;;2.40;;
1545;SDS011;766;51.502;9.752;2024-02-14T01:12:38;2.90;;;1.80;;
1545;SDS011;766;51.502;9.752;2024-02-14T01:15:07;5.82;;;2.13;;
1545;SDS011;766;51.502;9.752;2024-02-14T01:17:39;3.95;;;2.08;;
1545;SDS011;766;51.502;9.752;2024-02-14T01:20:08;5.80;;;1.88;;
1545;SDS011;766;51.502;9.752;2024-02-14T01:22:36;8.50;;;1.95;;
1545;SDS011;766;51.502;9.752;2024-02-14T01:25:05;4.70;;;1.73;;
1545;SDS011;766;51.502;9.752;2024-02-14T01:27:35;6.78;;;1.90;;
1545;SDS011;766;51.502;9.752;2024-02-14T01:30:05;3.28;;;1.88;;
1545;SDS011;766;51.502;9.752;2024-02-14T01:32:34;4.35;;;1.48;;
1545;SDS011;766;51.502;9.752;2024-02-14T01:35:03;2.63;;;1.58;;
1545;SDS011;766;51.502;9.752;2024-02-14T01:37:32;5.07;;;1.60;;
1545;SDS011;766;51.502;9.752;2024-02-14T01:40:00;2.25;;;1.30;;
1545;SDS011;766;51.502;9.752;2024-02-14T01:42:29;4.53;;;1.60;;
1545;SDS011;766;51.502;9.752;2024-02-14T01:44:57;7.68;;;1.25;;
1545;SDS011;766;51.502;9.752;2024-02-14T01:47:27;5.53;;;1.50;;
1545;SDS011;766;51.502;9.752;2024-02-14T01:49:55;5.32;;;1.30;;
1545;SDS011;766;51.502;9.752;2024-02-14T01:52:24;6.25;;;1.40;;
1545;SDS011;766;51.502;9.752;2024-02-14T01:54:53;7.43;;;1.50;;
1545;SDS011;766;51.502;9.752;2024-02-14T01:57:22;6.38;;;1.10;;
1545;SDS011;766;51.502;9.752;2024-02-14T01:59:52;3.85;;;1.10;;
1545;SDS011;766;51.502;9.752;2024-02-14T02:02:22;4.18;;;1.67;;
1545;SDS011;766;51.502;9.752;2024-02-14T02:04:54;2.45;;;1.38;;
1545;SDS011;766;51.502;9.752;2024-02-14T02:07:23;2.65;;;1.30;;
1545;SDS011;766;51.502;9.752;2024-02-14T02:09:52;3.65;;;1.40;;
1545;SDS011;766;51.502;9.752;2024-02-14T02:12:22;3.58;;;1.30;;
1545;SDS011;766;51.502;9.752;2024-02-14T02:14:54;3.65;;;1.13;;
1545;SDS011;766;51.502;9.752;2024-02-14T02:17:22;2.60;;;1.20;;
1545;SDS011;766;51.502;9.752;2024-02-14T02:19:54;6.75;;;1.40;;
1545;SDS011;766;51.502;9.752;2024-02-14T02:22:27;5.03;;;1.45;;
1545;SDS011;766;51.502;9.752;2024-02-14T02:25:01;3.90;;;1.23;;
1545;SDS011;766;51.502;9.752;2024-02-14T02:27:29;2.08;;;0.82;;
1545;SDS011;766;51.502;9.752;2024-02-14T02:29:58;4.32;;;1.10;;
1545;SDS011;766;51.502;9.752;2024-02-14T02:32:27;2.17;;;1.40;;
1545;SDS011;766;51.502;9.752;2024-02-14T02:34:56;2.38;;;1.40;;
1545;SDS011;766;51.502;9.752;2024-02-14T02:37:26;2.20;;;1.20;;
1545;SDS011;766;51.502;9.752;2024-02-14T02:39:58;7.03;;;1.63;;
1545;SDS011;766;51.502;9.752;2024-02-14T02:42:28;3.30;;;1.40;;
1545;SDS011;766;51.502;9.752;2024-02-14T02:44:59;3.90;;;1.25;;
1545;SDS011;766;51.502;9.752;2024-02-14T02:47:29;3.28;;;1.42;;
1545;SDS011;766;51.502;9.752;2024-02-14T02:49:58;5.45;;;1.40;;
1545;SDS011;766;51.502;9.752;2024-02-14T02:52:33;3.55;;;1.65;;
1545;SDS011;766;51.502;9.752;2024-02-14T02:55:01;2.55;;;1.58;;
1545;SDS011;766;51.502;9.752;2024-02-14T02:57:33;8.63;;;1.45;;
1545;SDS011;766;51.502;9.752;2024-02-14T03:00:04;2.88;;;1.40;;
1545;SDS011;766;51.502;9.752;2024-02-14T03:02:36;4.78;;;1.30;;
1545;SDS011;766;51.502;9.752;2024-02-14T03:05:12;3.50;;;1.33;;
1545;SDS011;766;51.502;9.752;2024-02-14T03:07:45;8.88;;;1.50;;
1545;SDS011;766;51.502;9.752;2024-02-14T03:10:15;3.50;;;1.60;;
1545;SDS011;766;51.502;9.752;2024-02-14T03:12:47;2.17;;;1.30;;
1545;SDS011;766;51.502;9.752;2024-02-14T03:15:16;3.83;;;1.20;;
1545;SDS011;766;51.502;9.752;2024-02-14T03:17:48;2.75;;;1.40;;
1545;SDS011;766;51.502;9.752;2024-02-14T03:20:16;6.32;;;1.60;;
1545;SDS011;766;51.502;9.752;2024-02-14T03:22:46;2.60;;;1.17;;
1545;SDS011;766;51.502;9.752;2024-02-14T03:25:16;2.67;;;1.35;;
1545;SDS011;766;51.502;9.752;2024-02-14T03:27:47;3.90;;;1.35;;
1545;SDS011;766;51.502;9.752;2024-02-14T03:30:19;3.95;;;1.45;;
1545;SDS011;766;51.502;9.752;2024-02-14T03:32:49;3.50;;;1.30;;
1545;SDS011;766;51.502;9.752;2024-02-14T03:35:20;5.28;;;1.45;;
1545;SDS011;766;51.502;9.752;2024-02-14T03:37:48;3.97;;;1.65;;
1545;SDS011;766;51.502;9.752;2024-02-14T03:40:19;6.55;;;1.67;;
1545;SDS011;766;51.502;9.752;2024-02-14T03:42:49;3.45;;;1.17;;
1545;SDS011;766;51.502;9.752;2024-02-14T03:45:18;2.42;;;1.30;;
1545;SDS011;766;51.502;9.752;2024-02-14T03:47:47;4.95;;;1.50;;
1545;SDS011;766;51.502;9.752;2024-02-14T03:50:15;2.53;;;1.30;;
1545;SDS011;766;51.502;9.752;2024-02-14T03:52:43;7.72;;;1.48;;
1545;SDS011;766;51.502;9.752;2024-02-14T03:55:11;4.78;;;1.27;;
1545;SDS011;766;51.502;9.752;2024-02-14T03:57:40;3.88;;;1.77;;
1545;SDS011;766;51.502;9.752;2024-02-14T04:00:13;4.30;;;1.63;;
1545;SDS011;766;51.502;9.752;2024-02-14T04:02:43;2.60;;;1.38;;
1545;SDS011;766;51.502;9.752;2024-02-14T04:05:11;3.92;;;1.48;;
1545;SDS011;766;51.502;9.752;2024-02-14T04:07:39;3.38;;;1.50;;
1545;SDS011;766;51.502;9.752;2024-02-14T04:10:10;2.45;;;1.60;;
1545;SDS011;766;51.502;9.752;2024-02-14T04:12:40;5.90;;;1.60;;
1545;SDS011;766;51.502;9.752;2024-02-14T04:15:08;3.13;;;1.40;;
1545;SDS011;766;51.502;9.752;2024-02-14T04:17:38;4.47;;;1.48;;
1545;SDS011;766;51.502;9.752;2024-02-14T04:20:07;3.55;;;1.60;;
1545;SDS011;766;51.502;9.752;2024-02-14T04:22:36;4.20;;;1.45;;
1545;SDS011;766;51.502;9.752;2024-02-14T04:25:05;7.15;;;2.55;;
1545;SDS011;766;51.502;9.752;2024-02-14T04:27:35;5.03;;;1.85;;
1545;SDS011;766;51.502;9.752;2024-02-14T04:30:04;5.18;;;1.60;;
1545;SDS011;766;51.502;9.752;2024-02-14T04:32:34;5.57;;;1.95;;
1545;SDS011;766;51.502;9.752;2024-02-14T04:35:04;8.75;;;2.17;;
1545;SDS011;766;51.502;9.752;2024-02-14T04:37:32;4.40;;;1.80;;
1545;SDS011;766;51.502;9.752;2024-02-14T04:40:00;3.70;;;2.00;;
1545;SDS011;766;51.502;9.752;2024-02-14T04:42:30;6.30;;;3.22;;
1545;SDS011;766;51.502;9.752;2024-02-14T04:44:59;5.10;;;2.10;;
1545;SDS011;766;51.502;9.752;2024-02-14T04:47:28;5.47;;;1.90;;
1545;SDS011;766;51.502;9.752;2024-02-14T04:49:57;6.35;;;1.95;;
1545;SDS011;766;51.502;9.752;2024-02-14T04:52:27;5.25;;;2.00;;
1545;SDS011;766;51.502;9.752;2024-02-14T04:54:56;4.75;;;1.70;;
1545;SDS011;766;51.502;9.752;2024-02-14T04:57:24;4.85;;;2.17;;
1545;SDS011;766;51.502;9.752;2024-02-14T04:59:52;5.32;;;1.88;;
1545;SDS011;766;51.502;9.752;2024-02-14T05:02:20;3.75;;;1.67;;
1545;SDS011;766;51.502;9.752;2024-02-14T05:04:49;4.82;;;1.75;;
1545;SDS011;766;51.502;9.752;2024-02-14T05:07:17;4.32;;;1.80;;
1545;SDS011;766;51.502;9.752;2024-02-14T05:09:47;4.95;;;1.80;;
1545;SDS011;766;51.502;9.752;2024-02-14T05:12:18;3.70;;;1.65;;
1545;SDS011;766;51.502;9.752;2024-02-14T05:14:47;4.68;;;1.80;;
1545;SDS011;766;51.502;9.752;2024-02-14T05:17:15;5.10;;;1.80;;
1545;SDS011;766;51.502;9.752;2024-02-14T05:19:44;5.85;;;1.90;;
1545;SDS011;766;51.502;9.752;2024-02-14T05:22:12;5.10;;;1.95;;
1545;SDS011;766;51.502;9.752;2024-02-14T05:24:52;5.25;;;1.40;;
1545;SDS011;766;51.502;9.752;2024-02-14T05:27:21;3.47;;;1.90;;
1545;SDS011;766;51.502;9.752;2024-02-14T05:29:52;5.72;;;2.75;;
1545;SDS011;766;51.502;9.752;2024-02-14T05:32:20;3.95;;;1.75;;
1545;SDS011;766;51.502;9.752;2024-02-14T05:34:48;4.60;;;1.30;;
1545;SDS011;766;51.502;9.752;2024-02-14T05:37:16;3.92;;;1.50;;
1545;SDS011;766;51.502;9.752;2024-02-14T05:39:45;4.25;;;1.40;;
1545;SDS011;766;51.502;9.752;2024-02-14T05:42:14;4.93;;;1.63;;
1545;SDS011;766;51.502;9.752;2024-02-14T05:44:43;7.30;;;1.85;;
1545;SDS011;766;51.502;9.752;2024-02-14T05:47:11;4.05;;;1.70;;
1545;SDS011;766;51.502;9.752;2024-02-14T05:49:39;5.07;;;2.15;;
1545;SDS011;766;51.502;9.752;2024-02-14T05:52:08;6.65;;;1.50;;
1545;SDS011;766;51.502;9.752;2024-02-14T05:54:36;4.30;;;1.67;;
1545;SDS011;766;51.502;9.752;2024-02-14T05:57:04;7.07;;;1.63;;
1545;SDS011;766;51.502;9.752;2024-02-14T05:59:35;5.53;;;1.83;;
1545;SDS011;766;51.502;9.752;2024-02-14T06:02:03;4.03;;;1.90;;
1545;SDS011;766;51.502;9.752;2024-02-14T06:04:34;3.60;;;1.77;;
1545;SDS011;766;51.502;9.752;2024-02-14T06:07:02;6.53;;;1.92;;
1545;SDS011;766;51.502;9.752;2024-02-14T06:09:33;3.50;;;1.92;;
1545;SDS011;766;51.502;9.752;2024-02-14T06:12:01;6.43;;;1.88;;
1545;SDS011;766;51.502;9.752;2024-02-14T06:14:30;5.25;;;2.30;;
1545;SDS011;766;51.502;9.752;2024-02-14T06:17:01;4.05;;;1.60;;
1545;SDS011;766;51.502;9.752;2024-02-14T06:19:30;7.07;;;2.40;;
1545;SDS011;766;51.502;9.752;2024-02-14T06:22:04;3.75;;;1.95;;
1545;SDS011;766;51.502;9.752;2024-02-14T06:24:35;4.50;;;1.95;;
1545;SDS011;766;51.502;9.752;2024-02-14T06:27:03;5.32;;;2.20;;
1545;SDS011;766;51.502;9.752;2024-02-14T06:29:32;4.63;;;2.65;;
1545;SDS011;766;51.502;9.752;2024-02-14T06:32:01;6.60;;;2.00;;
1545;SDS011;766;51.502;9.752;2024-02-14T06:34:30;3.25;;;1.75;;
1545;SDS011;766;51.502;9.752;2024-02-14T06:36:59;5.07;;;2.10;;
1545;SDS011;766;51.502;9.752;2024-02-14T06:39:27;3.85;;;1.83;;
1545;SDS011;766;51.502;9.752;2024-02-14T06:41:55;6.75;;;1.80;;
1545;SDS011;766;51.502;9.752;2024-02-14T06:44:24;3.88;;;1.80;;
1545;SDS011;766;51.502;9.752;2024-02-14T06:46:52;7.15;;;2.33;;
1545;SDS011;766;51.502;9.752;2024-02-14T06:49:22;9.43;;;2.42;;
1545;SDS011;766;51.502;9.752;2024-02-14T06:51:51;6.93;;;2.35;;
1545;SDS011;766;51.502;9.752;2024-02-14T06:54:20;2.38;;;1.73;;
1545;SDS011;766;51.502;9.752;2024-02-14T06:56:48;4.75;;;2.17;;
1545;SDS011;766;51.502;9.752;2024-02-14T06:59:16;4.40;;;2.08;;
1545;SDS011;766;51.502;9.752;2024-02-14T07:01:44;7.43;;;2.10;;
1545;SDS011;766;51.502;9.752;2024-02-14T07:04:12;6.32;;;2.15;;
1545;SDS011;766;51.502;9.752;2024-02-14T07:06:42;6.50;;;2.38;;
1545;SDS011;766;51.502;9.752;2024-02-14T07:09:13;4.97;;;2.10;;
1545;SDS011;766;51.502;9.752;2024-02-14T07:11:41;6.22;;;1.98;;
1545;SDS011;766;51.502;9.752;2024-02-14T07:14:12;4.68;;;2.25;;
1545;SDS011;766;51.502;9.752;2024-02-14T07:16:44;5.30;;;2.05;;
1545;SDS011;766;51.502;9.752;2024-02-14T07:19:12;5.38;;;2.38;;
1545;SDS011;766;51.502;9.752;2024-02-14T07:21:42;5.35;;;1.95;;
1545;SDS011;766;51.502;9.752;2024-02-14T07:24:14;5.53;;;2.30;;
1545;SDS011;766;51.502;9.752;2024-02-14T07:26:42;5.35;;;2.63;;
1545;SDS011;766;51.502;9.752;2024-02-14T07:29:11;7.75;;;2.20;;
1545;SDS011;766;51.502;9.752;2024-02-14T07:31:41;2.92;;;1.98;;
1545;SDS011;766;51.502;9.752;2024-02-14T07:34:13;6.45;;;2.50;;
1545;SDS011;766;51.502;9.752;2024-02-14T07:36:43;3.83;;;2.20;;
1545;SDS011;766;51.502;9.752;2024-02-14T07:39:13;10.18;;;2.40;;
1545;SDS011;766;51.502;9.752;2024-02-14T07:41:41;5.40;;;2.42;;
1545;SDS011;766;51.502;9.752;2024-02-14T07:44:11;5.78;;;2.83;;
1545;SDS011;766;51.502;9.752;2024-02-14T07:46:40;5.63;;;2.30;;
1545;SDS011;766;51.502;9.752;2024-02-14T07:49:11;8.88;;;2.25;;
1545;SDS011;766;51.502;9.752;2024-02-14T07:51:39;6.78;;;2.75;;
1545;SDS011;766;51.502;9.752;2024-02-14T07:54:09;6.18;;;2.42;;
1545;SDS011;766;51.502;9.752;2024-02-14T07:56:37;5.63;;;2.72;;
1545;SDS011;766;51.502;9.752;2024-02-14T07:59:06;11.00;;;2.35;;
1545;SDS011;766;51.502;9.752;2024-02-14T08:01:34;3.45;;;2.10;;
1545;SDS011;766;51.502;9.752;2024-02-14T08:04:09;4.35;;;2.30;;
1545;SDS011;766;51.502;9.752;2024-02-14T08:06:38;7.78;;;2.70;;
1545;SDS011;766;51.502;9.752;2024-02-14T08:09:06;8.38;;;2.47;;
1545;SDS011;766;51.502;9.752;2024-02-14T08:11:37;3.08;;;2.17;;
1545;SDS011;766;51.502;9.752;2024-02-14T08:14:06;4.00;;;2.58;;
1545;SDS011;766;51.502;9.752;2024-02-14T08:16:34;7.68;;;2.60;;
1545;SDS011;766;51.502;9.752;2024-02-14T08:19:02;6.15;;;2.40;;
1545;SDS011;766;51.502;9.752;2024-02-14T08:21:31;5.40;;;2.60;;
1545;SDS011;766;51.502;9.752;2024-02-14T08:24:00;5.70;;;2.40;;
1545;SDS011;766;51.502;9.752;2024-02-14T08:26:29;4.95;;;2.58;;
1545;SDS011;766;51.502;9.752;2024-02-14T08:28:59;6.47;;;2.45;;
1545;SDS011;766;51.502;9.752;2024-02-14T08:31:27;3.97;;;2.40;;
1545;SDS011;766;51.502;9.752;2024-02-14T08:33:56;5.97;;;3.00;;
1545;SDS011;766;51.502;9.752;2024-02-14T08:36:25;5.47;;;2.67;;
1545;SDS011;766;51.502;9.752;2024-02-14T08:38:53;5.00;;;2.72;;
1545;SDS011;766;51.502;9.752;2024-02-14T08:41:21;6.32;;;2.92;;
1545;SDS011;766;51.502;9.752;2024-02-14T08:43:50;5.78;;;2.50;;
1545;SDS011;766;51.502;9.752;2024-02-14T08:46:20;7.53;;;2.58;;
1545;SDS011;766;51.502;9.752;2024-02-14T08:48:49;5.85;;;2.50;;
1545;SDS011;766;51.502;9.752;2024-02-14T08:51:18;4.93;;;2.20;;
1545;SDS011;766;51.502;9.752;2024-02-14T08:53:47;5.97;;;2.40;;
1545;SDS011;766;51.502;9.752;2024-02-14T08:56:15;6.57;;;2.88;;
1545;SDS011;766;51.502;9.752;2024-02-14T08:58:43;3.90;;;2.60;;
1545;SDS011;766;51.502;9.752;2024-02-14T09:01:11;6.13;;;2.78;;
1545;SDS011;766;51.502;9.752;2024-02-14T09:03:43;6.68;;;2.80;;
1545;SDS011;766;51.502;9.752;2024-02-14T09:06:16;4.55;;;2.30;;
1545;SDS011;766;51.502;9.752;2024-02-14T09:08:45;4.75;;;2.92;;
1545;SDS011;766;51.502;9.752;2024-02-14T09:11:17;5.43;;;2.90;;
1545;SDS011;766;51.502;9.752;2024-02-14T09:13:45;3.67;;;2.33;;
1545;SDS011;766;51.502;9.752;2024-02-14T09:16:15;8.65;;;2.95;;
1545;SDS011;766;51.502;9.752;2024-02-14T09:18:46;6.53;;;2.72;;
1545;SDS011;766;51.502;9.752;2024-02-14T09:21:14;5.75;;;3.00;;
1545;SDS011;766;51.502;9.752;2024-02-14T09:23:46;6.97;;;2.78;;
1545;SDS011;766;51.502;9.752;2024-02-14T09:26:15;4.43;;;2.60;;
1545;SDS011;766;51.502;9.752;2024-02-14T09:28:43;5.97;;;2.60;;
1545;SDS011;766;51.502;9.752;2024-02-14T09:31:12;6.30;;;2.70;;
1545;SDS011;766;51.502;9.752;2024-02-14T09:33:47;5.90;;;2.53;;
1545;SDS011;766;51.502;9.752;2024-02-14T09:36:17;4.55;;;2.75;;
1545;SDS011;766;51.502;9.752;2024-02-14T09:38:46;4.95;;;2.50;;
1545;SDS011;766;51.502;9.752;2024-02-14T09:41:15;4.03;;;2.50;;
1545;SDS011;766;51.502;9.752;2024-02-14T09:43:49;5.10;;;3.42;;
1545;SDS011;766;51.502;9.752;2024-02-14T09:46:17;8.02;;;3.17;;
1545;SDS011;766;51.502;9.752;2024-02-14T09:48:47;7.25;;;2.92;;
1545;SDS011;766;51.502;9.752;2024-02-14T09:51:16;7.03;;;2.90;;
1545;SDS011;766;51.502;9.752;2024-02-14T09:53:44;5.55;;;2.47;;
1545;SDS011;766;51.502;9.752;2024-02-14T09:56:14;7.88;;;2.47;;
1545;SDS011;766;51.502;9.752;2024-02-14T09:58:48;3.85;;;2.50;;
1545;SDS011;766;51.502;9.752;2024-02-14T10:01:23;7.80;;;3.20;;
1545;SDS011;766;51.502;9.752;2024-02-14T10:03:54;7.25;;;2.78;;
1545;SDS011;766;51.502;9.752;2024-02-14T10:06:23;6.90;;;2.83;;
1545;SDS011;766;51.502;9.752;2024-02-14T10:08:55;4.80;;;2.70;;
1545;SDS011;766;51.502;9.752;2024-02-14T10:11:30;5.65;;;2.70;;
1545;SDS011;766;51.502;9.752;2024-02-14T10:13:59;4.20;;;2.50;;
1545;SDS011;766;51.502;9.752;2024-02-14T10:16:30;3.30;;;2.25;;
1545;SDS011;766;51.502;9.752;2024-02-14T10:19:03;4.20;;;2.25;;
1545;SDS011;766;51.502;9.752;2024-02-14T10:21:34;3.92;;;2.42;;
1545;SDS011;766;51.502;9.752;2024-02-14T10:24:02;5.63;;;2.53;;
1545;SDS011;766;51.502;9.752;2024-02-14T10:26:31;5.32;;;2.40;;
1545;SDS011;766;51.502;9.752;2024-02-14T10:28:59;8.07;;;2.88;;
1545;SDS011;766;51.502;9.752;2024-02-14T10:31:28;4.10;;;2.55;;
1545;SDS011;766;51.502;9.752;2024-02-14T10:33:56;2.55;;;2.33;;
1545;SDS011;766;51.502;9.752;2024-02-14T10:36:27;4.60;;;2.65;;
1545;SDS011;766;51.502;9.752;2024-02-14T10:38:57;6.30;;;2.80;;
1545;SDS011;766;51.502;9.752;2024-02-14T10:41:26;3.92;;;2.97;;
1545;SDS011;766;51.502;9.752;2024-02-14T10:44:03;4.63;;;2.88;;
1545;SDS011;766;51.502;9.752;2024-02-14T10:46:32;3.40;;;2.83;;
1545;SDS011;766;51.502;9.752;2024-02-14T10:49:03;6.47;;;3.13;;
1545;SDS011;766;51.502;9.752;2024-02-14T10:51:35;7.18;;;3.10;;
1545;SDS011;766;51.502;9.752;2024-02-14T10:54:06;4.20;;;2.85;;
1545;SDS011;766;51.502;9.752;2024-02-14T10:56:38;6.15;;;3.22;;
1545;SDS011;766;51.502;9.752;2024-02-14T10:59:09;8.65;;;3.10;;
1545;SDS011;766;51.502;9.752;2024-02-14T11:01:39;5.38;;;3.85;;
1545;SDS011;766;51.502;9.752;2024-02-14T11:04:09;6.53;;;3.65;;
1545;SDS011;766;51.502;9.752;2024-02-14T11:06:47;6.45;;;3.30;;
1545;SDS011;766;51.502;9.752;2024-02-14T11:09:15;7.75;;;3.47;;
1545;SDS011;766;51.502;9.752;2024-02-14T11:11:44;8.73;;;3.90;;
1545;SDS011;766;51.502;9.752;2024-02-14T11:14:14;8.02;;;3.85;;
1545;SDS011;766;51.502;9.752;2024-02-14T11:16:44;12.85;;;4.10;;
1545;SDS011;766;51.502;9.752;2024-02-14T11:19:16;7.68;;;4.00;;
1545;SDS011;766;51.502;9.752;2024-02-14T11:21:51;6.50;;;3.72;;
1545;SDS011;766;51.502;9.752;2024-02-14T11:24:19;7.82;;;3.90;;
1545;SDS011;766;51.502;9.752;2024-02-14T11:26:55;7.43;;;4.20;;
1545;SDS011;766;51.502;9.752;2024-02-14T11:29:28;9.13;;;3.83;;
1545;SDS011;766;51.502;9.752;2024-02-14T11:31:57;8.35;;;3.90;;
1545;SDS011;766;51.502;9.752;2024-02-14T11:34:27;8.88;;;3.55;;
1545;SDS011;766;51.502;9.752;2024-02-14T11:37:04;8.68;;;3.63;;
1545;SDS011;766;51.502;9.752;2024-02-14T11:39:34;7.68;;;3.40;;
1545;SDS011;766;51.502;9.752;2024-02-14T11:42:04;6.13;;;3.22;;
1545;SDS011;766;51.502;9.752;2024-02-14T11:44:33;5.25;;;3.08;;
1545;SDS011;766;51.502;9.752;2024-02-14T11:47:07;7.60;;;3.35;;
1545;SDS011;766;51.502;9.752;2024-02-14T11:49:37;6.00;;;3.50;;
1545;SDS011;766;51.502;9.752;2024-02-14T11:52:10;6.28;;;2.83;;
1545;SDS011;766;51.502;9.752;2024-02-14T11:54:45;8.02;;;3.05;;
1545;SDS011;766;51.502;9.752;2024-02-14T11:57:16;4.90;;;3.20;;
1545;SDS011;766;51.502;9.752;2024-02-14T11:59:48;7.60;;;3.22;;
1545;SDS011;766;51.502;9.752;2024-02-14T12:02:19;8.20;;;3.30;;
1545;SDS011;766;51.502;9.752;2024-02-14T12:04:48;7.78;;;2.85;;
1545;SDS011;766;51.502;9.752;2024-02-14T12:07:22;10.52;;;2.80;;
1545;SDS011;766;51.502;9.752;2024-02-14T12:09:51;6.18;;;2.90;;
1545;SDS011;766;51.502;9.752;2024-02-14T12:12:25;6.90;;;2.90;;
1545;SDS011;766;51.502;9.752;2024-02-14T12:14:53;4.45;;;2.45;;
1545;SDS011;766;51.502;9.752;2024-02-14T12:17:22;5.85;;;2.58;;
1545;SDS011;766;51.502;9.752;2024-02-14T12:19:50;7.40;;;2.38;;
1545;SDS011;766;51.502;9.752;2024-02-14T12:22:19;8.90;;;2.70;;
1545;SDS011;766;51.502;9.752;2024-02-14T12:24:49;6.32;;;3.03;;
1545;SDS011;766;51.502;9.752;2024-02-14T12:27:18;4.72;;;2.05;;
1545;SDS011;766;51.502;9.752;2024-02-14T12:29:47;7.15;;;2.10;;
1545;SDS011;766;51.502;9.752;2024-02-14T12:32:17;5.90;;;2.30;;
1545;SDS011;766;51.502;9.752;2024-02-14T12:34:45;6.90;;;2.40;;
1545;SDS011;766;51.502;9.752;2024-02-14T12:37:13;4.43;;;2.38;;
1545;SDS011;766;51.502;9.752;2024-02-14T12:39:43;7.05;;;2.30;;
1545;SDS011;766;51.502;9.752;2024-02-14T12:42:11;3.80;;;1.80;;
1545;SDS011;766;51.502;9.752;2024-02-14T12:44:39;3.25;;;2.28;;
1545;SDS011;766;51.502;9.752;2024-02-14T12:47:09;5.00;;;2.50;;
1545;SDS011;766;51.502;9.752;2024-02-14T12:49:37;7.25;;;2.10;;
1545;SDS011;766;51.502;9.752;2024-02-14T12:52:05;9.50;;;2.45;;
1545;SDS011;766;51.502;9.752;2024-02-14T12:54:34;5.22;;;1.98;;
1545;SDS011;766;51.502;9.752;2024-02-14T12:57:03;5.70;;;2.50;;
1545;SDS011;766;51.502;9.752;2024-02-14T12:59:33;2.63;;;2.03;;
1545;SDS011;766;51.502;9.752;2024-02-14T13:02:01;3.78;;;2.10;;
1545;SDS011;766;51.502;9.752;2024-02-14T13:04:33;4.07;;;2.03;;
1545;SDS011;766;51.502;9.752;2024-02-14T13:07:01;3.83;;;2.00;;
1545;SDS011;766;51.502;9.752;2024-02-14T13:09:30;4.10;;;1.98;;
1545;SDS011;766;51.502;9.752;2024-02-14T13:11:58;4.18;;;1.75;;
1545;SDS011;766;51.502;9.752;2024-02-14T13:14:28;4.90;;;1.90;;
1545;SDS011;766;51.502;9.752;2024-02-14T13:16:58;13.50;;;2.05;;
1545;SDS011;766;51.502;9.752;2024-02-14T13:19:27;4.78;;;1.98;;
1545;SDS011;766;51.502;9.752;2024-02-14T13:21:55;3.45;;;1.73;;
1545;SDS011;766;51.502;9.752;2024-02-14T13:24:24;3.08;;;1.60;;
1545;SDS011;766;51.502;9.752;2024-02-14T13:26:52;4.57;;;1.98;;
1545;SDS011;766;51.502;9.752;2024-02-14T13:29:21;5.60;;;1.90;;
1545;SDS011;766;51.502;9.752;2024-02-14T13:31:52;4.85;;;1.70;;
1545;SDS011;766;51.502;9.752;2024-02-14T13:34:20;7.40;;;1.90;;
1545;SDS011;766;51.502;9.752;2024-02-14T13:36:49;4.10;;;1.88;;
1545;SDS011;766;51.502;9.752;2024-02-14T13:39:17;4.28;;;1.88;;
1545;SDS011;766;51.502;9.752;2024-02-14T13:41:46;3.35;;;1.50;;
1545;SDS011;766;51.502;9.752;2024-02-14T13:44:14;4.25;;;1.60;;
1545;SDS011;766;51.502;9.752;2024-02-14T13:46:43;5.13;;;1.80;;
1545;SDS011;766;51.502;9.752;2024-02-14T13:49:13;3.72;;;1.52;;
1545;SDS011;766;51.502;9.752;2024-02-14T13:51:47;4.38;;;1.73;;
1545;SDS011;766;51.502;9.752;2024-02-14T13:54:16;3.95;;;2.00;;
1545;SDS011;766;51.502;9.752;2024-02-14T13:56:45;5.75;;;1.55;;
1545;SDS011;766;51.502;9.752;2024-02-14T13:59:14;4.32;;;1.40;;
1545;SDS011;766;51.502;9.752;2024-02-14T14:01:43;3.17;;;1.63;;
1545;SDS011;766;51.502;9.752;2024-02-14T14:04:14;4.38;;;1.55;;
1545;SDS011;766;51.502;9.752;2024-02-14T14:06:43;2.38;;;1.63;;
1545;SDS011;766;51.502;9.752;2024-02-14T14:09:13;6.15;;;1.42;;
1545;SDS011;766;51.502;9.752;2024-02-14T14:11:41;1.98;;;1.48;;
1545;SDS011;766;51.502;9.752;2024-02-14T14:14:09;5.57;;;1.80;;
1545;SDS011;766;51.502;9.752;2024-02-14T14:16:42;3.85;;;1.67;;
1545;SDS011;766;51.502;9.752;2024-02-14T14:19:10;2.80;;;1.80;;
1545;SDS011;766;51.502;9.752;2024-02-14T14:21:43;4.60;;;1.80;;
1545;SDS011;766;51.502;9.752;2024-02-14T14:24:12;4.60;;;1.65;;
1545;SDS011;766;51.502;9.752;2024-02-14T14:26:41;3.40;;;1.63;;
1545;SDS011;766;51.502;9.752;2024-02-14T14:29:10;4.38;;;1.52;;
1545;SDS011;766;51.502;9.752;2024-02-14T14:31:38;2.70;;;1.45;;
1545;SDS011;766;51.502;9.752;2024-02-14T14:34:06;2.55;;;1.58;;
1545;SDS011;766;51.502;9.752;2024-02-14T14:36:34;2.95;;;1.60;;
1545;SDS011;766;51.502;9.752;2024-02-14T14:39:05;5.63;;;1.63;;
1545;SDS011;766;51.502;9.752;2024-02-14T14:41:33;5.07;;;2.22;;
1545;SDS011;766;51.502;9.752;2024-02-14T14:44:02;4.35;;;2.10;;
1545;SDS011;766;51.502;9.752;2024-02-14T14:46:33;1.92;;;1.55;;
1545;SDS011;766;51.502;9.752;2024-02-14T14:49:01;2.08;;;1.20;;
1545;SDS011;766;51.502;9.752;2024-02-14T14:51:30;1.60;;;1.35;;
1545;SDS011;766;51.502;9.752;2024-02-14T14:53:58;4.30;;;1.60;;
1545;SDS011;766;51.502;9.752;2024-02-14T14:56:28;3.33;;;1.42;;
1545;SDS011;766;51.502;9.752;2024-02-14T14:58:56;3.85;;;1.70;;
1545;SDS011;766;51.502;9.752;2024-02-14T15:01:26;7.57;;;1.60;;
1545;SDS011;766;51.502;9.752;2024-02-14T15:03:55;5.43;;;1.63;;
1545;SDS011;766;51.502;9.752;2024-02-14T15:06:24;2.97;;;1.48;;
1545;SDS011;766;51.502;9.752;2024-02-14T15:08:53;2.35;;;1.35;;
1545;SDS011;766;51.502;9.752;2024-02-14T15:11:23;4.00;;;1.20;;
1545;SDS011;766;51.502;9.752;2024-02-14T15:13:52;2.45;;;1.55;;
1545;SDS011;766;51.502;9.752;2024-02-14T15:16:21;3.28;;;1.33;;
1545;SDS011;766;51.502;9.752;2024-02-14T15:18:50;4.30;;;1.52;;
1545;SDS011;766;51.502;9.752;2024-02-14T15:21:19;4.72;;;1.85;;
1545;SDS011;766;51.502;9.752;2024-02-14T15:23:47;3.17;;;1.65;;
1545;SDS011;766;51.502;9.752;2024-02-14T15:26:17;3.10;;;1.40;;
1545;SDS011;766;51.502;9.752;2024-02-14T15:28:50;4.75;;;1.48;;
1545;SDS011;766;51.502;9.752;2024-02-14T15:31:25;3.00;;;1.42;;
1545;SDS011;766;51.502;9.752;2024-02-14T15:34:11;6.65;;;1.60;;
1545;SDS011;766;51.502;9.752;2024-02-14T15:36:39;4.43;;;1.75;;
1545;SDS011;766;51.502;9.752;2024-02-14T15:39:08;2.80;;;1.60;;
1545;SDS011;766;51.502;9.752;2024-02-14T15:41:39;2.70;;;1.50;;
1545;SDS011;766;51.502;9.752;2024-02-14T15:44:08;4.85;;;1.73;;